sensor_id;sensor_type;location;lat;lon;timestamp;pressure;altitude;pressure_sealevel;temperature;humidity
51468;BME280;37545;45.302;-122.946;2023-06-10T00:01:43;101064.19;;;18.51;85.01
51468;BME280;37545;45.302;-122.946;2023-06-10T00:04:13;101069.44;;;18.45;85.20
51468;BME280;37545;45.302;-122.946;2023-06-10T00:06:44;101065.03;;;18.39;84.04
51468;BME280;37545;45.302;-122.946;2023-06-10T00:09:14;101063.31;;;18.35;84.48
51468;BME280;37545;45.302;-122.946;2023-06-10T00:11:44;101061.53;;;18.34;85.09
51468;BME280;37545;45.302;-122.946;2023-06-10T00:14:17;101060.69;;;18.33;86.17
51468;BME280;37545;45.302;-122.946;2023-06-10T00:16:46;101068.56;;;18.38;86.23
51468;BME280;37545;45.302;-122.946;2023-06-10T00:19:15;101065.88;;;18.18;83.24
51468;BME280;37545;45.302;-122.946;2023-06-10T00:21:45;101062.38;;;18.10;85.11
51468;BME280;37545;45.302;-122.946;2023-06-10T00:24:13;101059.69;;;17.99;85.67
51468;BME280;37545;45.302;-122.946;2023-06-10T00:26:42;101069.25;;;17.85;86.02
51468;BME280;37545;45.302;-122.946;2023-06-10T00:29:10;101063.03;;;17.69;87.69
51468;BME280;37545;45.302;-122.946;2023-06-10T00:31:41;101067.34;;;17.64;88.17
51468;BME280;37545;45.302;-122.946;2023-06-10T00:34:10;101066.47;;;17.63;87.83
51468;BME280;37545;45.302;-122.946;2023-06-10T00:36:38;101066.50;;;17.65;88.56
51468;BME280;37545;45.302;-122.946;2023-06-10T00:39:07;101067.34;;;17.61;87.90
51468;BME280;37545;45.302;-122.946;2023-06-10T00:41:35;101068.19;;;17.61;88.74
51468;BME280;37545;45.302;-122.946;2023-06-10T00:44:04;101068.19;;;17.61;87.38
51468;BME280;37545;45.302;-122.946;2023-06-10T00:46:33;101072.56;;;17.61;88.62
51468;BME280;37545;45.302;-122.946;2023-06-10T00:49:13;101075.16;;;17.53;88.69
51468;BME280;37545;45.302;-122.946;2023-06-10T00:51:43;101060.28;;;17.46;89.92
51468;BME280;37545;45.302;-122.946;2023-06-10T00:54:12;101067.28;;;17.48;90.17
51468;BME280;37545;45.302;-122.946;2023-06-10T00:56:41;101070.75;;;17.49;89.11
51468;BME280;37545;45.302;-122.946;2023-06-10T00:59:12;101068.13;;;17.46;88.74
51468;BME280;37545;45.302;-122.946;2023-06-10T01:01:42;101077.66;;;17.41;86.10
51468;BME280;37545;45.302;-122.946;2023-06-10T01:04:15;101078.53;;;17.36;87.13
51468;BME280;37545;45.302;-122.946;2023-06-10T01:06:51;101074.13;;;17.32;86.49
51468;BME280;37545;45.302;-122.946;2023-06-10T01:09:33;101075.00;;;17.31;86.30
51468;BME280;37545;45.302;-122.946;2023-06-10T01:12:20;101068.88;;;17.28;85.83
51468;BME280;37545;45.302;-122.946;2023-06-10T01:14:54;101071.44;;;17.25;86.80
51468;BME280;37545;45.302;-122.946;2023-06-10T01:17:24;101071.47;;;17.23;86.91
51468;BME280;37545;45.302;-122.946;2023-06-10T01:19:58;101074.03;;;17.20;86.15
51468;BME280;37545;45.302;-122.946;2023-06-10T01:22:30;101075.78;;;17.20;85.58
51468;BME280;37545;45.302;-122.946;2023-06-10T01:25:03;101073.19;;;17.18;86.56
51468;BME280;37545;45.302;-122.946;2023-06-10T01:27:36;101075.72;;;17.12;86.24
51468;BME280;37545;45.302;-122.946;2023-06-10T01:30:11;101082.72;;;17.14;87.23
51468;BME280;37545;45.302;-122.946;2023-06-10T01:32:44;101080.13;;;17.16;86.74
51468;BME280;37545;45.302;-122.946;2023-06-10T01:35:14;101083.63;;;17.18;87.40
51468;BME280;37545;45.302;-122.946;2023-06-10T01:37:46;101080.16;;;17.21;86.70
51468;BME280;37545;45.302;-122.946;2023-06-10T01:40:16;101087.16;;;17.23;87.69
51468;BME280;37545;45.302;-122.946;2023-06-10T01:42:44;101074.94;;;17.22;87.53
51468;BME280;37545;45.302;-122.946;2023-06-10T01:45:15;101084.50;;;17.22;87.61
51468;BME280;37545;45.302;-122.946;2023-06-10T01:47:44;101083.66;;;17.21;85.69
51468;BME280;37545;45.302;-122.946;2023-06-10T01:50:13;101089.72;;;17.19;84.69
51468;BME280;37545;45.302;-122.946;2023-06-10T01:52:44;101093.22;;;17.16;83.84
51468;BME280;37545;45.302;-122.946;2023-06-10T01:55:15;101087.91;;;17.10;83.26
51468;BME280;37545;45.302;-122.946;2023-06-10T01:57:44;101088.75;;;17.06;83.78
51468;BME280;37545;45.302;-122.946;2023-06-10T02:00:13;101092.25;;;17.05;83.39
51468;BME280;37545;45.302;-122.946;2023-06-10T02:02:42;101097.47;;;17.08;84.36
51468;BME280;37545;45.302;-122.946;2023-06-10T02:05:14;101087.03;;;17.11;85.49
51468;BME280;37545;45.302;-122.946;2023-06-10T02:07:44;101094.03;;;17.12;83.93
51468;BME280;37545;45.302;-122.946;2023-06-10T02:10:13;101094.06;;;17.13;84.71
51468;BME280;37545;45.302;-122.946;2023-06-10T02:12:41;101093.16;;;17.13;86.41
51468;BME280;37545;45.302;-122.946;2023-06-10T02:15:10;101093.19;;;17.14;85.45
51468;BME280;37545;45.302;-122.946;2023-06-10T02:17:39;101094.06;;;17.15;84.83
51468;BME280;37545;45.302;-122.946;2023-06-10T02:20:08;101089.69;;;17.14;84.42
51468;BME280;37545;45.302;-122.946;2023-06-10T02:22:37;101087.09;;;17.14;83.29
51468;BME280;37545;45.302;-122.946;2023-06-10T02:25:08;101088.81;;;17.15;83.63
51468;BME280;37545;45.302;-122.946;2023-06-10T02:27:39;101094.06;;;17.15;83.72
51468;BME280;37545;45.302;-122.946;2023-06-10T02:30:10;101093.19;;;17.14;83.45
51468;BME280;37545;45.302;-122.946;2023-06-10T02:32:42;101095.78;;;17.13;82.89
51468;BME280;37545;45.302;-122.946;2023-06-10T02:35:14;101092.31;;;17.14;82.57
51468;BME280;37545;45.302;-122.946;2023-06-10T02:37:46;101087.09;;;17.14;83.72
51468;BME280;37545;45.302;-122.946;2023-06-10T02:40:19;101083.56;;;17.09;83.99
51468;BME280;37545;45.302;-122.946;2023-06-10T02:42:48;101084.41;;;17.08;83.37
51468;BME280;37545;45.302;-122.946;2023-06-10T02:45:30;101080.94;;;17.09;83.63
51468;BME280;37545;45.302;-122.946;2023-06-10T02:47:59;101083.56;;;17.09;83.05
51468;BME280;37545;45.302;-122.946;2023-06-10T02:50:30;101088.78;;;17.09;83.58
51468;BME280;37545;45.302;-122.946;2023-06-10T02:53:14;101094.03;;;17.09;83.50
51468;BME280;37545;45.302;-122.946;2023-06-10T02:55:44;101097.47;;;17.08;84.87
51468;BME280;37545;45.302;-122.946;2023-06-10T03:01:07;101092.16;;;16.97;85.64
51468;BME280;37545;45.302;-122.946;2023-06-10T03:03:36;101093.84;;;16.92;86.36
51468;BME280;37545;45.302;-122.946;2023-06-10T03:06:11;101097.31;;;16.89;85.98
51468;BME280;37545;45.302;-122.946;2023-06-10T03:08:44;101092.94;;;16.87;85.95
51468;BME280;37545;45.302;-122.946;2023-06-10T03:11:15;101092.09;;;16.86;86.38
51468;BME280;37545;45.302;-122.946;2023-06-10T03:13:45;101095.59;;;16.88;86.17
51468;BME280;37545;45.302;-122.946;2023-06-10T03:16:14;101102.56;;;16.89;86.15
51468;BME280;37545;45.302;-122.946;2023-06-10T03:18:42;101094.69;;;16.88;85.43
51468;BME280;37545;45.302;-122.946;2023-06-10T03:21:11;101099.91;;;16.86;85.85
51468;BME280;37545;45.302;-122.946;2023-06-10T03:23:40;101088.47;;;16.78;86.41
51468;BME280;37545;45.302;-122.946;2023-06-10T03:26:08;101099.75;;;16.72;88.18
51468;BME280;37545;45.302;-122.946;2023-06-10T03:28:40;101092.78;;;16.70;87.07
51468;BME280;37545;45.302;-122.946;2023-06-10T03:31:09;101094.47;;;16.66;87.95
51468;BME280;37545;45.302;-122.946;2023-06-10T03:33:37;101093.56;;;16.64;88.76
51468;BME280;37545;45.302;-122.946;2023-06-10T03:36:07;101099.66;;;16.65;87.55
51468;BME280;37545;45.302;-122.946;2023-06-10T03:38:36;101105.75;;;16.64;88.77
51468;BME280;37545;45.302;-122.946;2023-06-10T03:41:04;101101.38;;;16.63;87.84
51468;BME280;37545;45.302;-122.946;2023-06-10T03:43:33;101104.88;;;16.62;87.76
51468;BME280;37545;45.302;-122.946;2023-06-10T03:46:03;101102.25;;;16.62;88.49
51468;BME280;37545;45.302;-122.946;2023-06-10T03:48:31;101099.63;;;16.60;88.79
51468;BME280;37545;45.302;-122.946;2023-06-10T03:51:01;101102.22;;;16.60;89.37
51468;BME280;37545;45.302;-122.946;2023-06-10T03:53:29;101098.78;;;16.61;89.87
51468;BME280;37545;45.302;-122.946;2023-06-10T03:55:58;101099.66;;;16.65;89.33
51468;BME280;37545;45.302;-122.946;2023-06-10T03:58:27;101102.28;;;16.65;88.96
51468;BME280;37545;45.302;-122.946;2023-06-10T04:00:58;101100.53;;;16.64;89.40
51468;BME280;37545;45.302;-122.946;2023-06-10T04:03:28;101097.94;;;16.64;89.38
51468;BME280;37545;45.302;-122.946;2023-06-10T04:05:58;101099.69;;;16.66;89.31
51468;BME280;37545;45.302;-122.946;2023-06-10T04:08:26;101097.94;;;16.67;89.70
51468;BME280;37545;45.302;-122.946;2023-06-10T04:10:55;101101.44;;;16.67;89.93
51468;BME280;37545;45.302;-122.946;2023-06-10T04:13:24;101103.16;;;16.67;88.99
51468;BME280;37545;45.302;-122.946;2023-06-10T04:15:52;101109.28;;;16.66;88.34
51468;BME280;37545;45.302;-122.946;2023-06-10T04:18:21;101110.16;;;16.68;88.22
51468;BME280;37545;45.302;-122.946;2023-06-10T04:20:51;101111.00;;;16.67;88.01
51468;BME280;37545;45.302;-122.946;2023-06-10T04:23:20;101113.63;;;16.67;87.93
51468;BME280;37545;45.302;-122.946;2023-06-10T04:25:48;101117.09;;;16.64;87.18
51468;BME280;37545;45.302;-122.946;2023-06-10T04:28:17;101119.66;;;16.63;87.41
51468;BME280;37545;45.302;-122.946;2023-06-10T04:30:53;101119.66;;;16.63;88.05
51468;BME280;37545;45.302;-122.946;2023-06-10T04:33:21;101110.91;;;16.54;87.61
51468;BME280;37545;45.302;-122.946;2023-06-10T04:35:52;101122.28;;;16.61;87.48
51468;BME280;37545;45.302;-122.946;2023-06-10T04:38:20;101127.50;;;16.61;87.16
51468;BME280;37545;45.302;-122.946;2023-06-10T04:40:49;101122.25;;;16.60;87.48
51468;BME280;37545;45.302;-122.946;2023-06-10T04:43:18;101132.75;;;16.61;87.50
51468;BME280;37545;45.302;-122.946;2023-06-10T04:45:46;101124.03;;;16.61;87.82
51468;BME280;37545;45.302;-122.946;2023-06-10T04:48:15;101127.47;;;16.58;87.92
51468;BME280;37545;45.302;-122.946;2023-06-10T04:50:43;101120.50;;;16.57;88.40
51468;BME280;37545;45.302;-122.946;2023-06-10T04:53:13;101120.44;;;16.52;88.31
51468;BME280;37545;45.302;-122.946;2023-06-10T04:55:42;101125.66;;;16.52;88.09
51468;BME280;37545;45.302;-122.946;2023-06-10T04:58:11;101134.31;;;16.48;88.07
51468;BME280;37545;45.302;-122.946;2023-06-10T05:00:40;101139.56;;;16.48;88.35
51468;BME280;37545;45.302;-122.946;2023-06-10T05:03:08;101144.75;;;16.45;88.80
51468;BME280;37545;45.302;-122.946;2023-06-10T05:05:37;101134.22;;;16.39;88.71
51468;BME280;37545;45.302;-122.946;2023-06-10T05:08:05;101139.41;;;16.38;89.15
51468;BME280;37545;45.302;-122.946;2023-06-10T05:10:36;101131.59;;;16.39;89.67
51468;BME280;37545;45.302;-122.946;2023-06-10T05:13:05;101134.22;;;16.39;91.50
51468;BME280;37545;45.302;-122.946;2023-06-10T05:15:33;101128.97;;;16.36;90.91
51468;BME280;37545;45.302;-122.946;2023-06-10T05:18:02;101132.38;;;16.30;89.81
51468;BME280;37545;45.302;-122.946;2023-06-10T05:20:30;101124.56;;;16.32;90.76
51468;BME280;37545;45.302;-122.946;2023-06-10T05:22:59;101124.59;;;16.35;90.30
51468;BME280;37545;45.302;-122.946;2023-06-10T05:25:30;101135.00;;;16.32;89.92
51468;BME280;37545;45.302;-122.946;2023-06-10T05:28:06;101132.38;;;16.30;90.60
51468;BME280;37545;45.302;-122.946;2023-06-10T05:30:36;101130.63;;;16.29;90.18
51468;BME280;37545;45.302;-122.946;2023-06-10T05:33:05;101130.63;;;16.29;92.13
51468;BME280;37545;45.302;-122.946;2023-06-10T05:35:33;101123.66;;;16.30;92.05
51468;BME280;37545;45.302;-122.946;2023-06-10T05:38:02;101129.75;;;16.30;91.83
51468;BME280;37545;45.302;-122.946;2023-06-10T05:40:31;101134.13;;;16.30;91.72
51468;BME280;37545;45.302;-122.946;2023-06-10T05:42:59;101132.38;;;16.30;91.29
51468;BME280;37545;45.302;-122.946;2023-06-10T05:45:29;101128.03;;;16.32;91.10
51468;BME280;37545;45.302;-122.946;2023-06-10T05:47:58;101128.91;;;16.31;90.90
51468;BME280;37545;45.302;-122.946;2023-06-10T05:50:27;101123.69;;;16.31;91.28
51468;BME280;37545;45.302;-122.946;2023-06-10T05:52:55;101129.78;;;16.32;91.20
51468;BME280;37545;45.302;-122.946;2023-06-10T05:55:24;101124.59;;;16.35;91.58
51468;BME280;37545;45.302;-122.946;2023-06-10T05:57:59;101130.69;;;16.34;91.31
51468;BME280;37545;45.302;-122.946;2023-06-10T06:00:29;101132.44;;;16.35;92.34
51468;BME280;37545;45.302;-122.946;2023-06-10T06:02:58;101137.66;;;16.35;91.70
51468;BME280;37545;45.302;-122.946;2023-06-10T06:05:26;101132.44;;;16.35;92.41
51468;BME280;37545;45.302;-122.946;2023-06-10T06:08:01;101136.75;;;16.33;92.30
51468;BME280;37545;45.302;-122.946;2023-06-10T06:10:30;101136.75;;;16.33;91.98
51468;BME280;37545;45.302;-122.946;2023-06-10T06:12:58;101136.75;;;16.33;91.30
51468;BME280;37545;45.302;-122.946;2023-06-10T06:15:29;101135.00;;;16.32;91.52
51468;BME280;37545;45.302;-122.946;2023-06-10T06:17:57;101131.50;;;16.30;91.07
51468;BME280;37545;45.302;-122.946;2023-06-10T06:20:26;101131.50;;;16.30;91.06
51468;BME280;37545;45.302;-122.946;2023-06-10T06:22:54;101132.34;;;16.27;90.76
51468;BME280;37545;45.302;-122.946;2023-06-10T06:25:23;101127.97;;;16.25;90.89
51468;BME280;37545;45.302;-122.946;2023-06-10T06:27:52;101140.13;;;16.23;90.04
51468;BME280;37545;45.302;-122.946;2023-06-10T06:30:21;101134.88;;;16.20;90.36
51468;BME280;37545;45.302;-122.946;2023-06-10T06:32:51;101139.19;;;16.18;90.99
51468;BME280;37545;45.302;-122.946;2023-06-10T06:35:19;101126.97;;;16.17;90.39
51468;BME280;37545;45.302;-122.946;2023-06-10T06:37:48;101128.72;;;16.16;90.49
51468;BME280;37545;45.302;-122.946;2023-06-10T06:40:17;101125.19;;;16.12;91.25
51468;BME280;37545;45.302;-122.946;2023-06-10T06:42:45;101124.31;;;16.10;91.44
51468;BME280;37545;45.302;-122.946;2023-06-10T06:45:14;101124.25;;;16.07;91.34
51468;BME280;37545;45.302;-122.946;2023-06-10T06:47:42;101121.66;;;16.06;90.86
51468;BME280;37545;45.302;-122.946;2023-06-10T06:50:13;101125.97;;;16.05;90.92
51468;BME280;37545;45.302;-122.946;2023-06-10T06:52:41;101122.47;;;16.03;91.71
51468;BME280;37545;45.302;-122.946;2023-06-10T06:55:12;101127.66;;;16.00;92.20
51468;BME280;37545;45.302;-122.946;2023-06-10T06:57:41;101122.41;;;15.99;92.21
51468;BME280;37545;45.302;-122.946;2023-06-10T07:00:10;101127.63;;;15.97;92.95
51468;BME280;37545;45.302;-122.946;2023-06-10T07:02:38;101134.53;;;15.95;92.45
51468;BME280;37545;45.302;-122.946;2023-06-10T07:05:08;101132.75;;;15.91;93.49
51468;BME280;37545;45.302;-122.946;2023-06-10T07:07:38;101129.22;;;15.89;93.27
51468;BME280;37545;45.302;-122.946;2023-06-10T07:10:07;101130.94;;;15.87;93.51
51468;BME280;37545;45.302;-122.946;2023-06-10T07:12:36;101129.19;;;15.86;94.68
51468;BME280;37545;45.302;-122.946;2023-06-10T07:15:05;101124.81;;;15.85;94.88
51468;BME280;37545;45.302;-122.946;2023-06-10T07:17:34;101119.59;;;15.83;96.59
51468;BME280;37545;45.302;-122.946;2023-06-10T07:20:03;101119.56;;;15.82;95.85
51468;BME280;37545;45.302;-122.946;2023-06-10T07:22:32;101122.16;;;15.80;96.31
51468;BME280;37545;45.302;-122.946;2023-06-10T07:25:02;101123.88;;;15.78;95.45
51468;BME280;37545;45.302;-122.946;2023-06-10T07:27:31;101119.47;;;15.74;96.09
51468;BME280;37545;45.302;-122.946;2023-06-10T07:29:59;101120.22;;;15.68;97.17
51468;BME280;37545;45.302;-122.946;2023-06-10T07:32:31;101119.31;;;15.65;97.84
51468;BME280;37545;45.302;-122.946;2023-06-10T07:34:59;101118.34;;;15.58;97.30
51468;BME280;37545;45.302;-122.946;2023-06-10T07:37:28;101122.63;;;15.53;97.77
51468;BME280;37545;45.302;-122.946;2023-06-10T07:39:57;101120.81;;;15.50;97.88
51468;BME280;37545;45.302;-122.946;2023-06-10T07:42:27;101120.84;;;15.52;97.98
51468;BME280;37545;45.302;-122.946;2023-06-10T07:44:55;101122.59;;;15.52;98.11
51468;BME280;37545;45.302;-122.946;2023-06-10T07:47:24;101124.28;;;15.49;98.37
51468;BME280;37545;45.302;-122.946;2023-06-10T07:49:52;101126.03;;;15.50;98.00
51468;BME280;37545;45.302;-122.946;2023-06-10T07:52:21;101131.28;;;15.52;96.86
51468;BME280;37545;45.302;-122.946;2023-06-10T07:54:49;101132.16;;;15.51;96.93
51468;BME280;37545;45.302;-122.946;2023-06-10T07:57:18;101132.16;;;15.51;97.17
51468;BME280;37545;45.302;-122.946;2023-06-10T07:59:48;101128.63;;;15.49;96.22
51468;BME280;37545;45.302;-122.946;2023-06-10T08:02:17;101126.03;;;15.49;96.13
51468;BME280;37545;45.302;-122.946;2023-06-10T08:04:45;101126.88;;;15.48;96.48
51468;BME280;37545;45.302;-122.946;2023-06-10T08:07:14;101127.72;;;15.47;96.46
51468;BME280;37545;45.302;-122.946;2023-06-10T08:09:44;101125.97;;;15.46;96.77
51468;BME280;37545;45.302;-122.946;2023-06-10T08:12:13;101125.97;;;15.44;96.29
51468;BME280;37545;45.302;-122.946;2023-06-10T08:14:41;101125.97;;;15.44;96.61
51468;BME280;37545;45.302;-122.946;2023-06-10T08:17:11;101129.41;;;15.42;96.52
51468;BME280;37545;45.302;-122.946;2023-06-10T08:19:40;101130.22;;;15.41;96.65
51468;BME280;37545;45.302;-122.946;2023-06-10T08:22:10;101125.88;;;15.41;96.48
51468;BME280;37545;45.302;-122.946;2023-06-10T08:24:39;101123.28;;;15.40;95.93
51468;BME280;37545;45.302;-122.946;2023-06-10T08:27:07;101122.41;;;15.39;96.90
51468;BME280;37545;45.302;-122.946;2023-06-10T08:29:36;101127.59;;;15.38;96.07
51468;BME280;37545;45.302;-122.946;2023-06-10T08:32:05;101133.63;;;15.37;95.88
51468;BME280;37545;45.302;-122.946;2023-06-10T08:34:36;101130.16;;;15.35;96.65
51468;BME280;37545;45.302;-122.946;2023-06-10T08:37:05;101122.34;;;15.35;96.40
51468;BME280;37545;45.302;-122.946;2023-06-10T08:39:33;101126.66;;;15.33;96.24
51468;BME280;37545;45.302;-122.946;2023-06-10T08:42:09;101128.38;;;15.34;96.55
51468;BME280;37545;45.302;-122.946;2023-06-10T08:44:40;101126.66;;;15.33;96.38
51468;BME280;37545;45.302;-122.946;2023-06-10T08:47:14;101135.31;;;15.32;96.17
51468;BME280;37545;45.302;-122.946;2023-06-10T08:49:48;101127.44;;;15.28;95.55
51468;BME280;37545;45.302;-122.946;2023-06-10T08:52:18;101136.09;;;15.27;94.61
51468;BME280;37545;45.302;-122.946;2023-06-10T08:55:01;101141.25;;;15.23;94.51
51468;BME280;37545;45.302;-122.946;2023-06-10T08:57:31;101150.69;;;15.16;94.04
51468;BME280;37545;45.302;-122.946;2023-06-10T09:00:00;101141.03;;;15.11;94.20
51468;BME280;37545;45.302;-122.946;2023-06-10T09:02:29;101147.09;;;15.08;95.65
51468;BME280;37545;45.302;-122.946;2023-06-10T09:05:00;101146.22;;;15.09;95.58
51468;BME280;37545;45.302;-122.946;2023-06-10T09:07:30;101143.63;;;15.07;96.72
51468;BME280;37545;45.302;-122.946;2023-06-10T09:10:00;101142.69;;;15.05;96.50
51468;BME280;37545;45.302;-122.946;2023-06-10T09:12:30;101140.97;;;15.06;96.61
51468;BME280;37545;45.302;-122.946;2023-06-10T09:14:58;101143.56;;;15.06;96.50
51468;BME280;37545;45.302;-122.946;2023-06-10T09:17:27;101146.13;;;15.04;96.49
51468;BME280;37545;45.302;-122.946;2023-06-10T09:19:56;101147.97;;;15.08;95.61
51468;BME280;37545;45.302;-122.946;2023-06-10T09:22:26;101147.09;;;15.08;94.95
51468;BME280;37545;45.302;-122.946;2023-06-10T09:25:03;101143.63;;;15.09;95.40
51468;BME280;37545;45.302;-122.946;2023-06-10T09:27:32;101147.09;;;15.08;94.22
51468;BME280;37545;45.302;-122.946;2023-06-10T09:30:00;101148.00;;;15.10;94.29
51468;BME280;37545;45.302;-122.946;2023-06-10T09:32:29;101147.97;;;15.08;93.66
51468;BME280;37545;45.302;-122.946;2023-06-10T09:34:58;101145.34;;;15.08;94.13
51468;BME280;37545;45.302;-122.946;2023-06-10T09:37:28;101141.00;;;15.09;93.70
51468;BME280;37545;45.302;-122.946;2023-06-10T09:40:04;101141.88;;;15.08;93.94
51468;BME280;37545;45.302;-122.946;2023-06-10T09:42:34;101143.63;;;15.07;94.14
51468;BME280;37545;45.302;-122.946;2023-06-10T09:45:03;101151.41;;;15.06;95.30
51468;BME280;37545;45.302;-122.946;2023-06-10T09:47:32;101149.66;;;15.06;94.98
51468;BME280;37545;45.302;-122.946;2023-06-10T09:50:00;101144.44;;;15.05;94.83
51468;BME280;37545;45.302;-122.946;2023-06-10T09:52:31;101146.13;;;15.04;94.19
51468;BME280;37545;45.302;-122.946;2023-06-10T09:55:01;101142.63;;;15.01;93.54
51468;BME280;37545;45.302;-122.946;2023-06-10T09:57:31;101146.97;;;15.02;93.88
51468;BME280;37545;45.302;-122.946;2023-06-10T10:00:04;101140.00;;;15.01;94.22
51468;BME280;37545;45.302;-122.946;2023-06-10T10:02:44;101144.34;;;15.00;93.68
51468;BME280;37545;45.302;-122.946;2023-06-10T10:05:14;101143.44;;;14.98;93.56
51468;BME280;37545;45.302;-122.946;2023-06-10T10:07:45;101145.16;;;14.98;94.21
51468;BME280;37545;45.302;-122.946;2023-06-10T10:10:14;101139.94;;;14.96;94.18
51468;BME280;37545;45.302;-122.946;2023-06-10T10:12:43;101141.66;;;14.96;92.98
51468;BME280;37545;45.302;-122.946;2023-06-10T10:15:16;101138.94;;;14.90;94.12
51468;BME280;37545;45.302;-122.946;2023-06-10T10:17:52;101147.69;;;14.93;94.02
51468;BME280;37545;45.302;-122.946;2023-06-10T10:20:26;101144.16;;;14.91;94.34
51468;BME280;37545;45.302;-122.946;2023-06-10T10:22:57;101145.00;;;14.88;94.09
51468;BME280;37545;45.302;-122.946;2023-06-10T10:25:29;101149.31;;;14.88;93.57
51468;BME280;37545;45.302;-122.946;2023-06-10T10:28:05;101149.28;;;14.86;93.47
51468;BME280;37545;45.302;-122.946;2023-06-10T10:30:39;101144.03;;;14.83;93.08
51468;BME280;37545;45.302;-122.946;2023-06-10T10:33:15;101141.38;;;14.80;92.78
51468;BME280;37545;45.302;-122.946;2023-06-10T10:35:46;101136.13;;;14.79;92.87
51468;BME280;37545;45.302;-122.946;2023-06-10T10:38:16;101140.44;;;14.77;92.25
51468;BME280;37545;45.302;-122.946;2023-06-10T10:40:46;101147.34;;;14.75;92.67
51468;BME280;37545;45.302;-122.946;2023-06-10T10:43:16;101132.44;;;14.66;91.34
51468;BME280;37545;45.302;-122.946;2023-06-10T10:45:46;101144.66;;;14.70;90.87
51468;BME280;37545;45.302;-122.946;2023-06-10T10:48:15;101138.53;;;14.68;91.89
51468;BME280;37545;45.302;-122.946;2023-06-10T10:50:43;101135.88;;;14.65;91.91
51468;BME280;37545;45.302;-122.946;2023-06-10T10:53:25;101139.28;;;14.61;91.69
51468;BME280;37545;45.302;-122.946;2023-06-10T10:56:04;101139.22;;;14.58;91.29
51468;BME280;37545;45.302;-122.946;2023-06-10T10:58:33;101134.88;;;14.57;91.23
51468;BME280;37545;45.302;-122.946;2023-06-10T11:01:11;101133.97;;;14.56;91.31
51468;BME280;37545;45.302;-122.946;2023-06-10T11:03:44;101136.50;;;14.53;92.50
51468;BME280;37545;45.302;-122.946;2023-06-10T11:06:14;101131.25;;;14.50;92.86
51468;BME280;37545;45.302;-122.946;2023-06-10T11:08:49;101133.81;;;14.49;93.08
51468;BME280;37545;45.302;-122.946;2023-06-10T11:11:20;101128.50;;;14.44;93.27
51468;BME280;37545;45.302;-122.946;2023-06-10T11:14:15;101124.94;;;14.40;93.27
51468;BME280;37545;45.302;-122.946;2023-06-10T11:16:57;101133.56;;;14.36;92.60
51468;BME280;37545;45.302;-122.946;2023-06-10T11:19:34;101136.97;;;14.32;93.08
51468;BME280;37545;45.302;-122.946;2023-06-10T11:22:06;101132.56;;;14.30;94.02
51468;BME280;37545;45.302;-122.946;2023-06-10T11:24:37;101135.94;;;14.25;94.37
51468;BME280;37545;45.302;-122.946;2023-06-10T11:27:22;101131.56;;;14.23;94.58
51468;BME280;37545;45.302;-122.946;2023-06-10T11:30:18;101126.28;;;14.20;95.13
51468;BME280;37545;45.302;-122.946;2023-06-10T11:32:51;101127.13;;;14.19;95.09
51468;BME280;37545;45.302;-122.946;2023-06-10T11:35:24;101129.69;;;14.16;95.52
51468;BME280;37545;45.302;-122.946;2023-06-10T11:37:54;101128.78;;;14.14;95.61
51468;BME280;37545;45.302;-122.946;2023-06-10T11:40:25;101132.19;;;14.13;94.85
51468;BME280;37545;45.302;-122.946;2023-06-10T11:42:56;101127.81;;;14.10;95.01
51468;BME280;37545;45.302;-122.946;2023-06-10T11:45:26;101135.56;;;14.09;94.67
51468;BME280;37545;45.302;-122.946;2023-06-10T11:47:58;101131.19;;;14.04;94.52
51468;BME280;37545;45.302;-122.946;2023-06-10T11:50:30;101131.09;;;14.01;93.74
51468;BME280;37545;45.302;-122.946;2023-06-10T11:52:59;101131.94;;;14.00;93.75
51468;BME280;37545;45.302;-122.946;2023-06-10T11:55:42;101136.25;;;13.98;93.72
51468;BME280;37545;45.302;-122.946;2023-06-10T11:58:14;101135.31;;;13.96;93.77
51468;BME280;37545;45.302;-122.946;2023-06-10T12:00:46;101134.47;;;13.96;93.68
51468;BME280;37545;45.302;-122.946;2023-06-10T12:03:15;101134.41;;;13.94;94.36
51468;BME280;37545;45.302;-122.946;2023-06-10T12:05:55;101141.31;;;13.92;93.28
51468;BME280;37545;45.302;-122.946;2023-06-10T12:08:24;101130.84;;;13.89;92.21
51468;BME280;37545;45.302;-122.946;2023-06-10T12:10:56;101148.13;;;13.87;93.61
51468;BME280;37545;45.302;-122.946;2023-06-10T12:13:27;101144.59;;;13.83;93.90
51468;BME280;37545;45.302;-122.946;2023-06-10T12:16:06;101148.84;;;13.80;93.88
51468;BME280;37545;45.302;-122.946;2023-06-10T12:18:35;101147.94;;;13.78;93.44
51468;BME280;37545;45.302;-122.946;2023-06-10T12:21:16;101133.84;;;13.70;93.38
51468;BME280;37545;45.302;-122.946;2023-06-10T12:24:02;101147.78;;;13.72;93.21
51468;BME280;37545;45.302;-122.946;2023-06-10T12:26:41;101146.88;;;13.70;93.49
51468;BME280;37545;45.302;-122.946;2023-06-10T12:29:20;101144.19;;;13.67;93.82
51468;BME280;37545;45.302;-122.946;2023-06-10T12:31:58;101147.63;;;13.64;93.13
51468;BME280;37545;45.302;-122.946;2023-06-10T12:34:34;101151.91;;;13.62;93.46
51468;BME280;37545;45.302;-122.946;2023-06-10T12:37:04;101153.63;;;13.61;93.58
51468;BME280;37545;45.302;-122.946;2023-06-10T12:39:33;101155.25;;;13.58;93.22
51468;BME280;37545;45.302;-122.946;2023-06-10T12:42:04;101152.56;;;13.53;93.53